KAPF/APF METAR and TAF weather

Enter ICAO airport designator
Station Type Date Time Source
KAPF METAR 2022/12/10 00:53 UTC NOAA

KAPF 100053Z AUTO 34004KT 10SM CLR 23/19 A3009 RMK AO2 SLP189 T02330189 PWINO


Station Type Date Time Source
KAPF Decoded METAR 2022/12/10 00:53 UTC NOAA

NAPLES MUNICIPAL AIRPORT, FL, United States (KAPF) 26-09N 081-46W
Dec 09, 2022 - 07:53 PM EST / 2022.12.10 0053 UTC
Wind: from the NNW (340 degrees) at 5 MPH (4 KT):0
Visibility: 10 mile(s):0
Sky conditions: clear
Temperature: 73.9 F (23.3 C)
Dew Point: 66.0 F (18.9 C)
Relative Humidity: 76%
Pressure (altimeter): 30.09 in. Hg (1018 hPa)
ob: KAPF 100053Z AUTO 34004KT 10SM CLR 23/19 A3009 RMK AO2 SLP189 T02330189 PWINO
cycle: 1

Station Type Date Time Source
KAPF TAF 2022/12/09 21:10 UTC NOAA

TAF
AMD KAPF 092108Z 0921/1018 35008KT P6SM SCT040
FM100000 VRB04KT P6SM SKC
FM101000 VRB03KT 5SM BR SCT015
FM101500 02006KT P6SM SCT045

Example: see airport list